createdAt,value
2022-10-19T00:01:13.334Z,82.49
2022-10-19T00:03:42.317Z,82.68
2022-10-19T00:06:16.426Z,82.72
2022-10-19T00:08:44.541Z,82.82
2022-10-19T00:11:12.760Z,82.76
2022-10-19T00:13:40.824Z,82.48
2022-10-19T00:16:12.150Z,82.74
2022-10-19T00:18:41.121Z,83.51
2022-10-19T00:21:10.684Z,83.17
2022-10-19T00:23:38.626Z,83.39
2022-10-19T00:26:07.182Z,83.43
2022-10-19T00:28:35.302Z,83.03
2022-10-19T00:31:06.305Z,83.23
2022-10-19T00:33:34.523Z,82.89
2022-10-19T00:36:02.210Z,82.89
2022-10-19T00:38:29.912Z,82.99
2022-10-19T00:40:57.478Z,83.17
2022-10-19T00:43:30.117Z,83.29
2022-10-19T00:45:57.796Z,83.04
2022-10-19T00:48:30.257Z,83.01
2022-10-19T00:51:00.240Z,83.21
2022-10-19T00:53:31.041Z,83.14
2022-10-19T00:56:03.307Z,83.20
2022-10-19T00:58:30.886Z,83.26
2022-10-19T01:01:03.091Z,83.30
2022-10-19T01:03:30.892Z,83.05
2022-10-19T01:06:00.165Z,83.13
2022-10-19T01:08:28.318Z,83.03
2022-10-19T01:11:19.399Z,82.92
2022-10-19T01:14:02.505Z,82.66
2022-10-19T01:16:58.729Z,82.14
2022-10-19T01:19:54.339Z,81.90
2022-10-19T01:22:59.066Z,81.76
2022-10-19T01:25:47.737Z,81.63
2022-10-19T01:28:40.244Z,81.96
2022-10-19T01:31:29.612Z,82.17
2022-10-19T01:34:10.747Z,82.28
2022-10-19T01:37:02.411Z,82.27
2022-10-19T01:39:49.792Z,81.97
2022-10-19T01:42:30.425Z,81.59
2022-10-19T01:45:07.035Z,81.52
2022-10-19T01:47:41.295Z,81.66
2022-10-19T01:50:17.957Z,81.62
2022-10-19T01:52:46.548Z,81.72
2022-10-19T01:55:16.141Z,81.97
2022-10-19T01:57:48.164Z,82.59
2022-10-19T02:00:17.219Z,82.73
2022-10-19T02:02:48.468Z,82.70
2022-10-19T02:05:20.212Z,82.90
2022-10-19T02:07:55.157Z,83.00
2022-10-19T02:10:25.083Z,82.90
2022-10-19T02:12:55.841Z,82.75
2022-10-19T02:15:27.704Z,82.80
2022-10-19T02:18:03.297Z,82.80
2022-10-19T02:20:31.180Z,82.79
2022-10-19T02:22:58.751Z,82.90
2022-10-19T02:25:26.842Z,83.18
2022-10-19T02:27:54.559Z,83.15
2022-10-19T02:30:22.376Z,83.38
2022-10-19T02:32:51.147Z,83.46
2022-10-19T02:35:19.118Z,83.76
2022-10-19T02:37:46.676Z,83.79
2022-10-19T02:40:14.712Z,84.05
2022-10-19T02:42:50.645Z,84.32
2022-10-19T02:45:23.686Z,84.49
2022-10-19T02:47:57.421Z,84.17
2022-10-19T02:50:25.495Z,84.43
2022-10-19T02:52:53.151Z,84.32
2022-10-19T02:55:20.860Z,83.96
2022-10-19T02:57:48.441Z,83.98
2022-10-19T03:00:16.271Z,83.74
2022-10-19T03:02:44.179Z,83.62
2022-10-19T03:05:11.850Z,83.77
2022-10-19T03:07:39.498Z,83.84
2022-10-19T03:10:07.674Z,83.53
2022-10-19T03:12:35.241Z,83.58
2022-10-19T03:15:03.277Z,83.20
2022-10-19T03:17:31.226Z,83.02
2022-10-19T03:19:59.138Z,83.07
2022-10-19T03:22:26.761Z,83.28
2022-10-19T03:24:54.315Z,83.65
2022-10-19T03:27:21.919Z,83.57
2022-10-19T03:29:50.183Z,83.64
2022-10-19T03:32:17.872Z,83.28
2022-10-19T03:34:45.520Z,83.45
2022-10-19T03:37:15.061Z,83.22
2022-10-19T03:39:43.015Z,83.53
2022-10-19T03:42:10.626Z,83.43
2022-10-19T03:44:38.219Z,83.45
2022-10-19T03:47:05.828Z,83.45
2022-10-19T03:49:34.675Z,83.23
2022-10-19T03:52:04.655Z,83.16
2022-10-19T03:54:32.399Z,83.25
2022-10-19T03:56:59.992Z,83.09
2022-10-19T03:59:27.765Z,82.96
2022-10-19T04:01:55.467Z,82.75
2022-10-19T04:04:23.159Z,82.94
2022-10-19T04:06:53.093Z,82.81
2022-10-19T04:09:22.376Z,82.86
2022-10-19T04:11:50.379Z,83.09
2022-10-19T04:14:32.914Z,82.96
2022-10-19T04:17:07.134Z,82.96
2022-10-19T04:19:34.926Z,83.01
2022-10-19T04:22:03.300Z,82.85
2022-10-19T04:24:30.953Z,82.74
2022-10-19T04:26:58.535Z,83.09
2022-10-19T04:29:29.876Z,83.28
2022-10-19T04:31:57.955Z,83.23
2022-10-19T04:34:25.574Z,83.30
2022-10-19T04:36:53.886Z,83.28
2022-10-19T04:39:21.655Z,83.25
2022-10-19T04:41:49.304Z,83.39
2022-10-19T04:44:17.024Z,83.53
2022-10-19T04:46:44.667Z,83.47
2022-10-19T04:49:15.204Z,83.40
2022-10-19T04:51:45.694Z,83.36
2022-10-19T04:54:13.453Z,83.16
2022-10-19T04:56:41.213Z,83.12
2022-10-19T04:59:10.048Z,83.03
2022-10-19T05:01:38.189Z,82.83
2022-10-19T05:04:05.743Z,82.84
2022-10-19T05:06:35.814Z,82.49
2022-10-19T05:09:03.796Z,82.52
2022-10-19T05:11:31.443Z,82.19
2022-10-19T05:14:01.385Z,82.03
2022-10-19T05:16:29.005Z,81.62
2022-10-19T05:18:58.599Z,81.30
2022-10-19T05:21:31.107Z,81.09
2022-10-19T05:24:02.574Z,80.97
2022-10-19T05:26:32.568Z,80.77
2022-10-19T05:29:02.624Z,80.46
2022-10-19T05:31:33.129Z,80.25
2022-10-19T05:34:04.246Z,80.08
2022-10-19T05:36:40.081Z,79.83
2022-10-19T05:39:13.165Z,79.63
2022-10-19T05:41:43.884Z,79.66
2022-10-19T05:44:15.951Z,79.67
2022-10-19T05:46:47.067Z,79.14
2022-10-19T05:49:16.854Z,78.89
2022-10-19T05:51:47.653Z,78.14
2022-10-19T05:54:21.023Z,77.93
2022-10-19T05:56:57.323Z,78.01
2022-10-19T05:59:31.750Z,77.98
2022-10-19T06:02:10.903Z,78.05
2022-10-19T06:09:52.516Z,77.48
2022-10-19T06:12:11.952Z,77.90
2022-10-19T06:13:15.292Z,76.66
2022-10-19T06:16:42.015Z,76.44
2022-10-19T06:19:55.140Z,76.12
2022-10-19T06:49:01.594Z,71.13
2022-10-19T06:51:34.721Z,71.10
2022-10-19T06:54:08.582Z,71.71
2022-10-19T06:56:43.763Z,72.04
2022-10-19T06:59:23.076Z,71.97
2022-10-19T07:01:59.417Z,72.23
2022-10-19T07:17:00.859Z,70.72
2022-10-19T07:38:46.615Z,60.64
2022-10-19T07:45:09.790Z,59.26
2022-10-19T07:48:49.757Z,58.28
2022-10-19T08:56:49.245Z,53.11
2022-10-19T09:00:26.858Z,53.40
2022-10-19T09:08:57.860Z,53.38
2022-10-19T09:19:05.437Z,53.56
2022-10-19T09:27:06.657Z,51.90
2022-10-19T09:30:23.115Z,49.77
2022-10-19T09:33:03.629Z,50.16
2022-10-19T09:35:46.383Z,49.09
2022-10-19T09:38:39.649Z,48.25
2022-10-19T09:41:43.018Z,48.01
2022-10-19T09:44:39.500Z,48.19
2022-10-19T09:47:49.165Z,48.42
2022-10-19T09:51:19.027Z,49.30
2022-10-19T09:53:59.247Z,49.50
2022-10-19T09:56:43.286Z,48.99
2022-10-19T09:59:25.565Z,48.68
2022-10-19T10:02:35.978Z,48.50
2022-10-19T10:22:00.054Z,48.53
2022-10-19T10:24:54.925Z,47.98
2022-10-19T10:27:38.523Z,48.46
2022-10-19T10:30:09.214Z,48.90
2022-10-19T10:32:52.963Z,48.60
2022-10-19T10:35:34.104Z,48.24
2022-10-19T10:38:19.402Z,48.78
2022-10-19T10:45:00.691Z,46.29
2022-10-19T10:47:38.974Z,44.76
2022-10-19T10:50:21.042Z,45.35
2022-10-19T10:53:28.972Z,45.97
2022-10-19T10:56:00.274Z,46.16
2022-10-19T10:58:50.742Z,46.23
2022-10-19T11:02:19.494Z,45.51
2022-10-19T12:44:37.771Z,51.42
2022-10-19T12:47:35.580Z,51.42
2022-10-19T12:50:15.639Z,52.04
2022-10-19T12:53:27.885Z,52.33
2022-10-19T13:01:52.588Z,52.55
2022-10-19T13:04:34.088Z,52.88
2022-10-19T13:07:09.965Z,52.95
2022-10-19T13:09:45.994Z,53.11
2022-10-19T13:13:14.278Z,53.36
2022-10-19T13:15:50.807Z,53.62
2022-10-19T13:18:59.413Z,53.65
2022-10-19T13:21:44.491Z,53.94
2022-10-19T13:24:30.751Z,54.04
2022-10-19T13:27:26.222Z,54.40
2022-10-19T13:29:57.441Z,54.87
2022-10-19T13:32:46.482Z,55.29
2022-10-19T13:35:53.940Z,55.85
2022-10-19T13:39:16.310Z,55.99
2022-10-19T13:42:37.253Z,56.65
2022-10-19T13:45:37.277Z,57.35
2022-10-19T13:48:48.163Z,58.81
2022-10-19T13:51:45.974Z,59.34
2022-10-19T13:54:46.947Z,59.97
2022-10-19T13:57:54.161Z,60.18
2022-10-19T14:00:25.671Z,60.62
2022-10-19T14:03:31.847Z,60.62
2022-10-19T14:06:16.750Z,61.19
2022-10-19T14:09:09.612Z,61.66
2022-10-19T14:11:56.160Z,61.59
2022-10-19T14:14:24.306Z,62.05
2022-10-19T14:16:59.755Z,61.84
2022-10-19T14:19:33.396Z,63.12
2022-10-19T14:22:16.719Z,62.94
2022-10-19T14:24:43.321Z,64.42
2022-10-19T14:27:37.201Z,64.70
2022-10-19T14:30:24.325Z,64.21
2022-10-19T14:32:56.803Z,64.69
2022-10-19T14:35:32.354Z,64.54
2022-10-19T14:38:08.599Z,65.05
2022-10-19T14:40:40.250Z,64.66
2022-10-19T14:43:26.448Z,64.88
2022-10-19T14:46:09.940Z,64.64
2022-10-19T14:48:44.811Z,64.54
2022-10-19T14:51:23.785Z,64.67
2022-10-19T14:53:56.266Z,64.48
2022-10-19T14:56:33.862Z,64.54
2022-10-19T14:59:10.915Z,64.94
2022-10-19T15:01:37.551Z,64.73
2022-10-19T15:04:04.270Z,64.91
2022-10-19T15:06:39.708Z,64.85
2022-10-19T15:09:12.089Z,65.04
2022-10-19T15:11:49.431Z,65.56
2022-10-19T15:14:22.745Z,65.49
2022-10-19T15:16:53.546Z,65.44
2022-10-19T15:19:27.572Z,65.55
2022-10-19T15:22:12.112Z,65.69
2022-10-19T15:24:40.029Z,66.02
2022-10-19T15:27:10.241Z,66.04
2022-10-19T15:29:36.993Z,66.08
2022-10-19T15:32:21.839Z,66.22
2022-10-19T15:34:54.188Z,65.95
2022-10-19T15:37:23.520Z,65.94
2022-10-19T15:39:52.235Z,66.19
2022-10-19T15:42:40.348Z,66.13
2022-10-19T15:45:27.387Z,66.39
2022-10-19T15:48:15.126Z,66.40
2022-10-19T15:50:47.723Z,66.68
2022-10-19T15:53:15.045Z,67.28
2022-10-19T15:55:41.532Z,67.30
2022-10-19T15:58:09.971Z,67.55
2022-10-19T16:00:36.449Z,67.72
2022-10-19T16:03:04.060Z,68.56
2022-10-19T16:05:35.053Z,68.77
2022-10-19T16:08:01.520Z,69.04
2022-10-19T16:10:28.561Z,68.95
2022-10-19T16:12:54.792Z,68.94
2022-10-19T16:15:22.582Z,69.38
2022-10-19T16:17:52.340Z,69.64
2022-10-19T16:20:19.408Z,70.18
2022-10-19T16:22:47.085Z,70.18
2022-10-19T16:25:13.831Z,70.22
2022-10-19T16:27:40.380Z,70.65
2022-10-19T16:30:07.507Z,70.83
2022-10-19T16:32:34.207Z,71.04
2022-10-19T16:35:00.409Z,70.77
2022-10-19T16:37:26.982Z,70.84
2022-10-19T16:39:53.224Z,70.83
2022-10-19T16:42:19.820Z,70.62
2022-10-19T16:44:45.993Z,70.43
2022-10-19T16:47:13.155Z,70.57
2022-10-19T16:49:39.341Z,70.56
2022-10-19T16:52:05.479Z,70.53
2022-10-19T16:54:32.111Z,70.64
2022-10-19T16:56:58.306Z,70.77
2022-10-19T16:59:24.622Z,71.09
2022-10-19T17:01:50.975Z,70.99
2022-10-19T17:04:17.296Z,71.06
2022-10-19T17:06:43.505Z,70.98
2022-10-19T17:11:56.483Z,70.80
2022-10-19T17:14:22.696Z,70.81
2022-10-19T17:16:48.901Z,71.13
2022-10-19T17:19:15.194Z,71.38
2022-10-19T17:21:41.474Z,71.39
2022-10-19T17:24:13.835Z,71.55
2022-10-19T17:26:45.034Z,71.80
2022-10-19T17:29:11.811Z,71.78
2022-10-19T17:31:39.821Z,71.73
2022-10-19T17:34:07.671Z,71.69
2022-10-19T17:36:37.938Z,71.52
2022-10-19T17:39:08.694Z,71.48
2022-10-19T17:41:35.125Z,71.47
2022-10-19T17:44:04.316Z,71.51
2022-10-19T17:46:33.143Z,71.73
2022-10-19T17:48:59.834Z,71.86
2022-10-19T17:51:28.746Z,72.32
2022-10-19T17:53:57.459Z,72.65
2022-10-19T17:56:24.744Z,72.92
2022-10-19T17:58:51.396Z,72.93
2022-10-19T18:01:20.202Z,72.89
2022-10-19T18:03:47.564Z,73.31
2022-10-19T18:06:16.376Z,73.21
2022-10-19T18:08:46.634Z,72.88
2022-10-19T18:11:17.155Z,72.62
2022-10-19T18:13:43.462Z,72.38
2022-10-19T18:16:13.564Z,72.36
2022-10-19T18:18:42.510Z,72.66
2022-10-19T18:21:14.137Z,72.68
2022-10-19T18:23:40.417Z,73.00
2022-10-19T18:26:10.461Z,73.18
2022-10-19T18:28:37.200Z,73.20
2022-10-19T18:31:06.515Z,73.20
2022-10-19T18:33:33.223Z,73.23
2022-10-19T18:35:59.662Z,73.05
2022-10-19T18:38:25.994Z,72.83
2022-10-19T18:40:52.652Z,73.01
2022-10-19T18:43:18.896Z,73.14
2022-10-19T18:45:53.882Z,73.07
2022-10-19T18:48:20.736Z,73.50
2022-10-19T18:50:47.408Z,73.46
2022-10-19T18:53:13.955Z,73.26
2022-10-19T18:55:41.136Z,73.28
2022-10-19T18:58:08.273Z,73.07
2022-10-19T19:00:34.637Z,72.79
2022-10-19T19:03:01.034Z,72.73
2022-10-19T19:05:27.404Z,72.17
2022-10-19T19:07:55.276Z,72.36
2022-10-19T19:10:21.543Z,72.30
2022-10-19T19:12:49.904Z,71.85
2022-10-19T19:15:16.939Z,72.52
2022-10-19T19:17:43.271Z,72.41
2022-10-19T19:20:09.751Z,72.15
2022-10-19T19:22:36.583Z,72.05
2022-10-19T19:25:03.714Z,72.05
2022-10-19T19:27:31.925Z,72.10
2022-10-19T19:30:00.426Z,71.27
2022-10-19T19:32:26.955Z,71.04
2022-10-19T19:34:54.884Z,70.93
2022-10-19T19:37:21.446Z,70.54
2022-10-19T19:39:47.792Z,70.14
2022-10-19T19:42:14.117Z,69.76
2022-10-19T19:44:40.300Z,69.25
2022-10-19T19:47:07.671Z,69.30
2022-10-19T19:49:33.891Z,68.70
2022-10-19T19:52:00.232Z,68.73
2022-10-19T19:54:26.496Z,68.82
2022-10-19T19:56:53.197Z,68.74
2022-10-19T19:59:19.837Z,68.58
2022-10-19T20:01:46.284Z,68.01
2022-10-19T20:04:12.603Z,67.59
2022-10-19T20:06:39.999Z,67.09
2022-10-19T20:09:07.987Z,66.69
2022-10-19T20:11:36.200Z,66.58
2022-10-19T20:14:06.075Z,66.51
2022-10-19T20:16:32.862Z,66.43
2022-10-19T20:19:10.193Z,66.51
2022-10-19T20:21:37.435Z,66.14
2022-10-19T20:24:04.192Z,66.11
2022-10-19T20:26:30.837Z,65.84
2022-10-19T20:28:57.459Z,66.24
2022-10-19T20:31:24.667Z,65.62
2022-10-19T20:33:51.070Z,65.45
2022-10-19T20:36:21.058Z,65.44
2022-10-19T20:38:50.483Z,65.19
2022-10-19T20:41:18.353Z,65.01
2022-10-19T20:43:45.519Z,64.95
2022-10-19T20:46:17.085Z,64.64
2022-10-19T20:48:44.729Z,64.55
2022-10-19T20:51:15.930Z,63.68
2022-10-19T20:53:45.621Z,63.39
2022-10-19T20:56:15.619Z,63.06
2022-10-19T20:58:43.096Z,62.33
2022-10-19T21:01:13.969Z,62.47
2022-10-19T21:03:46.297Z,62.50
2022-10-19T21:06:12.541Z,62.09
2022-10-19T21:08:39.106Z,61.53
2022-10-19T21:11:24.453Z,62.05
2022-10-19T21:13:54.133Z,61.71
2022-10-19T21:16:22.447Z,61.64
2022-10-19T21:18:49.906Z,61.36
2022-10-19T21:21:21.346Z,60.99
2022-10-19T21:23:50.688Z,60.89
2022-10-19T21:26:20.355Z,60.62
2022-10-19T21:28:48.800Z,60.97
2022-10-19T21:31:17.123Z,60.76
2022-10-19T21:33:44.379Z,61.23
2022-10-19T21:36:12.302Z,61.21
2022-10-19T21:38:39.004Z,61.18
2022-10-19T21:41:08.085Z,61.10
2022-10-19T21:43:34.730Z,61.33
2022-10-19T21:46:05.099Z,61.05
2022-10-19T21:48:32.560Z,60.88
2022-10-19T21:50:59.709Z,61.14
2022-10-19T21:53:28.605Z,61.35
2022-10-19T21:55:58.763Z,61.32
2022-10-19T21:58:25.104Z,61.36
2022-10-19T22:00:51.548Z,61.39
2022-10-19T22:03:18.328Z,61.67
2022-10-19T22:05:51.914Z,61.61
2022-10-19T22:08:18.350Z,61.48
2022-10-19T22:10:44.701Z,61.74
2022-10-19T22:13:11.426Z,61.69
2022-10-19T22:15:39.400Z,61.86
2022-10-19T22:18:06.641Z,61.69
2022-10-19T22:20:35.543Z,61.92
2022-10-19T22:23:02.658Z,61.93
2022-10-19T22:25:31.053Z,62.05
2022-10-19T22:27:57.598Z,62.13
2022-10-19T22:30:23.990Z,62.40
2022-10-19T22:32:50.482Z,62.67
2022-10-19T22:35:16.912Z,62.65
2022-10-19T22:37:43.340Z,62.99
2022-10-19T22:40:10.037Z,63.15
2022-10-19T22:43:27.670Z,63.47
2022-10-19T22:46:13.545Z,63.96
2022-10-19T22:48:41.536Z,64.18
2022-10-19T22:51:07.903Z,64.53
2022-10-19T22:53:34.200Z,64.39
2022-10-19T22:56:00.939Z,64.26
2022-10-19T22:58:27.205Z,64.34
2022-10-19T23:01:03.418Z,64.35
2022-10-19T23:03:30.109Z,64.57
2022-10-19T23:05:56.742Z,64.59
2022-10-19T23:08:23.475Z,64.71
2022-10-19T23:10:49.715Z,64.67
2022-10-19T23:13:16.463Z,64.84
2022-10-19T23:15:44.046Z,64.91
2022-10-19T23:18:11.182Z,65.14
2022-10-19T23:20:37.612Z,65.51
2022-10-19T23:23:04.054Z,65.65
2022-10-19T23:28:01.707Z,66.14
2022-10-19T23:30:28.208Z,66.10
2022-10-19T23:32:54.600Z,66.23
2022-10-19T23:35:20.885Z,66.30
2022-10-19T23:37:47.179Z,66.35
2022-10-19T23:40:13.759Z,66.40
2022-10-19T23:42:40.105Z,66.93
2022-10-19T23:45:06.866Z,67.45
2022-10-19T23:47:33.399Z,67.66
2022-10-19T23:50:00.103Z,67.96
2022-10-19T23:52:26.433Z,68.23
2022-10-19T23:54:52.639Z,68.63
2022-10-19T23:57:19.434Z,68.88
2022-10-19T23:59:45.915Z,68.84
